createdAt,value
2017-03-31T00:00:52.615Z,0
2017-03-31T00:01:52.926Z,0
2017-03-31T00:02:52.590Z,0
2017-03-31T00:03:52.893Z,0
2017-03-31T00:04:52.880Z,0
2017-03-31T00:05:53.190Z,0
2017-03-31T00:06:53.168Z,0
2017-03-31T00:07:53.155Z,0
2017-03-31T00:08:52.854Z,0
2017-03-31T00:09:52.814Z,0
2017-03-31T00:10:52.493Z,0
2017-03-31T00:11:52.846Z,0
2017-03-31T00:12:52.787Z,0
2017-03-31T00:13:53.076Z,0
2017-03-31T00:14:53.065Z,0
2017-03-31T00:15:52.740Z,0
2017-03-31T00:16:52.734Z,0
2017-03-31T00:17:52.717Z,0
2017-03-31T00:18:53.017Z,0
2017-03-31T00:19:52.694Z,0
2017-03-31T00:20:52.687Z,0
2017-03-31T00:21:52.981Z,0
2017-03-31T00:22:52.969Z,0
2017-03-31T00:23:52.953Z,0
2017-03-31T00:24:52.835Z,0
2017-03-31T00:25:52.937Z,0
2017-03-31T00:26:52.611Z,0
2017-03-31T00:27:52.901Z,0
2017-03-31T00:28:52.897Z,0
2017-03-31T00:29:52.570Z,0
2017-03-31T00:30:52.918Z,0
2017-03-31T00:31:52.555Z,0
2017-03-31T00:32:52.841Z,0
2017-03-31T00:33:52.831Z,0
2017-03-31T00:34:52.820Z,0
2017-03-31T00:35:52.802Z,0
2017-03-31T00:36:52.792Z,0
2017-03-31T00:37:52.825Z,0
2017-03-31T00:38:52.449Z,0
2017-03-31T00:39:52.754Z,0
2017-03-31T00:40:52.934Z,0
2017-03-31T00:41:52.929Z,0
2017-03-31T00:42:52.712Z,0
2017-03-31T00:43:52.392Z,0
2017-03-31T00:44:52.382Z,0
2017-03-31T00:45:52.678Z,0
2017-03-31T00:46:52.350Z,0
2017-03-31T00:47:52.349Z,0
2017-03-31T00:48:52.635Z,0
2017-03-31T00:49:52.314Z,0
2017-03-31T00:50:51.990Z,0
2017-03-31T00:51:52.000Z,0
2017-03-31T00:52:52.590Z,0
2017-03-31T00:53:51.942Z,0
2017-03-31T00:54:51.620Z,0
2017-03-31T00:55:52.238Z,0
2017-03-31T00:56:52.220Z,0
2017-03-31T00:57:51.896Z,0
2017-03-31T00:58:52.195Z,0
2017-03-31T00:59:51.868Z,0
2017-03-31T01:00:52.174Z,0
2017-03-31T01:01:51.839Z,0
2017-03-31T01:02:52.139Z,0
2017-03-31T01:03:52.129Z,0
2017-03-31T01:04:52.117Z,0
2017-03-31T01:05:52.431Z,0
2017-03-31T01:06:52.093Z,0
2017-03-31T01:07:52.392Z,0
2017-03-31T01:08:52.380Z,0
2017-03-31T01:09:52.055Z,0
2017-03-31T01:10:52.038Z,0
2017-03-31T01:11:52.023Z,0
2017-03-31T01:12:52.327Z,0
2017-03-31T01:13:52.319Z,0
2017-03-31T01:14:51.991Z,0
2017-03-31T01:15:52.289Z,0
2017-03-31T01:16:52.276Z,0
2017-03-31T01:17:52.260Z,0
2017-03-31T01:18:52.261Z,0
2017-03-31T01:19:52.249Z,0
2017-03-31T01:20:52.229Z,0
2017-03-31T01:21:52.215Z,0
2017-03-31T01:22:52.197Z,0
2017-03-31T01:23:52.189Z,0
2017-03-31T01:24:51.853Z,0
2017-03-31T01:25:51.535Z,0
2017-03-31T01:26:51.830Z,0
2017-03-31T01:27:52.135Z,0
2017-03-31T01:28:52.122Z,0
2017-03-31T01:29:52.154Z,0
2017-03-31T01:30:52.124Z,0
2017-03-31T01:31:52.079Z,0
2017-03-31T01:32:52.072Z,0
2017-03-31T01:33:51.743Z,0
2017-03-31T01:34:51.726Z,0
2017-03-31T01:35:52.035Z,0
2017-03-31T01:36:51.701Z,0
2017-03-31T01:37:51.692Z,0
2017-03-31T01:38:52.039Z,0
2017-03-31T01:39:51.974Z,0
2017-03-31T01:40:51.966Z,0
2017-03-31T01:41:51.952Z,0
2017-03-31T01:42:51.942Z,0
2017-03-31T01:43:51.931Z,0
2017-03-31T01:44:51.913Z,0
2017-03-31T01:45:51.901Z,0
2017-03-31T01:46:51.889Z,0
2017-03-31T01:47:51.903Z,0
2017-03-31T01:48:51.862Z,0
2017-03-31T01:49:51.538Z,0
2017-03-31T01:50:51.224Z,0
2017-03-31T01:51:51.533Z,0
2017-03-31T01:52:51.508Z,0
2017-03-31T01:53:51.792Z,0
2017-03-31T01:54:51.791Z,0
2017-03-31T01:55:51.772Z,0
2017-03-31T01:56:51.446Z,0
2017-03-31T01:57:51.740Z,0
2017-03-31T01:58:51.742Z,0
2017-03-31T01:59:51.718Z,0
2017-03-31T02:00:51.398Z,0
2017-03-31T02:01:51.384Z,0
2017-03-31T02:02:51.679Z,0
2017-03-31T02:03:51.668Z,0
2017-03-31T02:04:51.650Z,0
2017-03-31T02:05:51.643Z,0
2017-03-31T02:06:51.361Z,0
2017-03-31T02:07:51.303Z,0
2017-03-31T02:08:51.294Z,0
2017-03-31T02:09:51.271Z,0
2017-03-31T02:10:51.265Z,0
2017-03-31T02:11:51.567Z,0
2017-03-31T02:12:51.597Z,0
2017-03-31T02:13:51.216Z,0
2017-03-31T02:14:51.200Z,0
2017-03-31T02:15:50.884Z,0
2017-03-31T02:16:51.200Z,0
2017-03-31T02:17:51.175Z,0
2017-03-31T02:18:51.158Z,0
2017-03-31T02:19:51.144Z,0
2017-03-31T02:20:51.441Z,0
2017-03-31T02:21:51.431Z,0
2017-03-31T02:22:51.113Z,0
2017-03-31T02:23:51.409Z,0
2017-03-31T02:24:51.411Z,0
2017-03-31T02:25:50.761Z,0
2017-03-31T02:26:51.368Z,0
2017-03-31T02:27:51.345Z,0
2017-03-31T02:28:51.381Z,0
2017-03-31T02:29:51.322Z,0
2017-03-31T02:30:51.363Z,0
2017-03-31T02:31:50.986Z,0
2017-03-31T02:32:50.672Z,0
2017-03-31T02:33:51.277Z,0
2017-03-31T02:34:50.633Z,0
2017-03-31T02:35:51.246Z,0
2017-03-31T02:36:51.231Z,0
2017-03-31T02:37:50.590Z,0
2017-03-31T02:38:51.222Z,0
2017-03-31T02:39:51.222Z,0
2017-03-31T02:40:51.382Z,0
2017-03-31T02:41:50.860Z,0
2017-03-31T02:42:51.208Z,0
2017-03-31T02:43:50.827Z,0
2017-03-31T02:44:50.813Z,0
2017-03-31T02:45:51.117Z,0
2017-03-31T02:46:51.103Z,0
2017-03-31T02:47:50.770Z,0
2017-03-31T02:48:50.752Z,0
2017-03-31T02:49:50.753Z,0
2017-03-31T02:50:50.738Z,0
2017-03-31T02:51:50.720Z,0
2017-03-31T02:52:50.706Z,0
2017-03-31T02:53:51.001Z,0
2017-03-31T02:54:50.685Z,0
2017-03-31T02:55:50.985Z,0
2017-03-31T02:56:50.670Z,0
2017-03-31T02:57:50.954Z,0
2017-03-31T02:58:50.626Z,0
2017-03-31T02:59:50.917Z,0
2017-03-31T03:00:50.637Z,0
2017-03-31T03:01:50.950Z,0
2017-03-31T03:02:50.884Z,0
2017-03-31T03:03:50.874Z,0
2017-03-31T03:04:50.553Z,0
2017-03-31T03:05:50.535Z,0
2017-03-31T03:06:50.830Z,0
2017-03-31T03:07:50.815Z,0
2017-03-31T03:08:50.484Z,0
2017-03-31T03:09:50.471Z,0
2017-03-31T03:10:50.827Z,0
2017-03-31T03:11:50.754Z,0
2017-03-31T03:12:50.742Z,0
2017-03-31T03:13:50.113Z,0
2017-03-31T03:14:50.716Z,0
2017-03-31T03:15:50.393Z,0
2017-03-31T03:16:50.383Z,0
2017-03-31T03:17:50.696Z,0
2017-03-31T03:18:50.674Z,0
2017-03-31T03:19:50.707Z,0
2017-03-31T03:20:50.642Z,0
2017-03-31T03:21:50.630Z,0
2017-03-31T03:22:50.299Z,0
2017-03-31T03:23:50.624Z,0
2017-03-31T03:24:50.497Z,0
2017-03-31T03:25:50.286Z,0
2017-03-31T03:26:50.563Z,0
2017-03-31T03:27:50.231Z,0
2017-03-31T03:28:50.526Z,0
2017-03-31T03:29:50.513Z,0
2017-03-31T03:30:50.184Z,0
2017-03-31T03:31:50.484Z,0
2017-03-31T03:32:50.366Z,0
2017-03-31T03:33:50.459Z,0
2017-03-31T03:34:50.444Z,0
2017-03-31T03:35:50.429Z,0
2017-03-31T03:36:50.417Z,0
2017-03-31T03:37:50.402Z,0
2017-03-31T03:38:50.389Z,0
2017-03-31T03:39:50.389Z,0
2017-03-31T03:40:50.362Z,0
2017-03-31T03:41:50.353Z,0
2017-03-31T03:42:50.331Z,0
2017-03-31T03:43:50.320Z,0
2017-03-31T03:44:49.998Z,0
2017-03-31T03:45:50.298Z,0
2017-03-31T03:46:49.967Z,0
2017-03-31T03:47:49.953Z,0
2017-03-31T03:48:50.252Z,0
2017-03-31T03:49:50.237Z,0
2017-03-31T03:50:50.219Z,0
2017-03-31T03:51:49.894Z,0
2017-03-31T03:52:50.192Z,0
2017-03-31T03:53:50.185Z,0
2017-03-31T03:54:50.165Z,0
2017-03-31T03:55:50.153Z,0
2017-03-31T03:56:50.141Z,0
2017-03-31T03:57:50.126Z,0
2017-03-31T03:58:50.120Z,0
2017-03-31T03:59:49.838Z,0
2017-03-31T04:00:49.787Z,0
2017-03-31T04:01:49.759Z,0
2017-03-31T04:02:50.063Z,0
2017-03-31T04:03:50.049Z,0
2017-03-31T04:04:50.037Z,0
2017-03-31T04:05:50.021Z,0
2017-03-31T04:06:49.688Z,0
2017-03-31T04:07:49.678Z,0
2017-03-31T04:08:49.969Z,0
2017-03-31T04:09:49.649Z,0
2017-03-31T04:10:49.640Z,0
2017-03-31T04:11:49.658Z,0
2017-03-31T04:12:49.915Z,0
2017-03-31T04:13:49.589Z,0
2017-03-31T04:14:49.896Z,0
2017-03-31T04:15:49.876Z,0
2017-03-31T04:16:49.869Z,0
2017-03-31T04:17:49.847Z,0
2017-03-31T04:18:49.831Z,0
2017-03-31T04:19:49.840Z,0
2017-03-31T04:20:49.809Z,0
2017-03-31T04:21:49.799Z,0
2017-03-31T04:22:49.786Z,0
2017-03-31T04:23:49.448Z,0
2017-03-31T04:24:49.442Z,0
2017-03-31T04:25:49.736Z,0
2017-03-31T04:26:49.101Z,0
2017-03-31T04:27:49.091Z,0
2017-03-31T04:28:49.699Z,0
2017-03-31T04:29:49.695Z,0
2017-03-31T04:30:49.668Z,0
2017-03-31T04:31:49.339Z,0
2017-03-31T04:32:49.639Z,0
2017-03-31T04:33:49.317Z,0
2017-03-31T04:34:49.622Z,0
2017-03-31T04:35:49.287Z,0
2017-03-31T04:36:49.604Z,0
2017-03-31T04:37:49.259Z,0
2017-03-31T04:38:49.556Z,0
2017-03-31T04:39:49.541Z,0
2017-03-31T04:40:49.729Z,0
2017-03-31T04:41:49.199Z,0
2017-03-31T04:42:49.493Z,0
2017-03-31T04:43:49.191Z,0
2017-03-31T04:44:49.480Z,0
2017-03-31T04:45:49.146Z,0
2017-03-31T04:46:49.500Z,0
2017-03-31T04:47:49.119Z,0
2017-03-31T04:48:48.821Z,0
2017-03-31T04:49:49.087Z,0
2017-03-31T04:50:49.071Z,0
2017-03-31T04:51:49.053Z,0
2017-03-31T04:52:49.359Z,0
2017-03-31T04:53:49.035Z,0
2017-03-31T04:54:49.330Z,0
2017-03-31T04:55:49.000Z,0
2017-03-31T04:56:49.308Z,0
2017-03-31T04:57:49.288Z,0
2017-03-31T04:58:49.279Z,0
2017-03-31T04:59:49.310Z,0
2017-03-31T05:00:49.280Z,0
2017-03-31T05:01:49.438Z,0
2017-03-31T05:02:48.589Z,0
2017-03-31T05:03:49.204Z,0
2017-03-31T05:04:49.186Z,0
2017-03-31T05:05:48.915Z,0
2017-03-31T05:06:48.842Z,0
2017-03-31T05:07:49.234Z,0
2017-03-31T05:08:49.130Z,0
2017-03-31T05:09:48.524Z,5
2017-03-31T05:10:49.310Z,5
2017-03-31T05:11:49.090Z,5
2017-03-31T05:12:49.274Z,5
2017-03-31T05:13:49.060Z,5
2017-03-31T05:14:49.042Z,5
2017-03-31T05:15:48.714Z,5
2017-03-31T05:16:48.725Z,5
2017-03-31T05:17:48.690Z,10
2017-03-31T05:18:48.676Z,10
2017-03-31T05:19:48.972Z,10
2017-03-31T05:20:48.971Z,10
2017-03-31T05:21:48.638Z,10
2017-03-31T05:22:48.612Z,10
2017-03-31T05:23:47.978Z,10
2017-03-31T05:24:48.589Z,15
2017-03-31T05:25:48.568Z,15
2017-03-31T05:26:48.566Z,15
2017-03-31T05:27:48.230Z,15
2017-03-31T05:28:48.849Z,15
2017-03-31T05:29:48.203Z,20
2017-03-31T05:30:48.822Z,20
2017-03-31T05:31:48.841Z,20
2017-03-31T05:32:48.471Z,20
2017-03-31T05:33:48.471Z,25
2017-03-31T05:34:48.132Z,25
2017-03-31T05:35:48.747Z,25
2017-03-31T05:36:48.727Z,30
2017-03-31T05:37:48.091Z,30
2017-03-31T05:38:48.704Z,30
2017-03-31T05:39:48.694Z,30
2017-03-31T05:40:48.374Z,35
2017-03-31T05:41:48.348Z,35
2017-03-31T05:42:48.339Z,35
2017-03-31T05:43:48.631Z,40
2017-03-31T05:44:48.621Z,40
2017-03-31T05:45:48.810Z,40
2017-03-31T05:46:48.604Z,40
2017-03-31T05:47:48.582Z,45
2017-03-31T05:48:48.618Z,45
2017-03-31T05:49:48.543Z,45
2017-03-31T05:50:48.597Z,50
2017-03-31T05:51:48.524Z,50
2017-03-31T05:52:48.511Z,50
2017-03-31T05:53:47.863Z,50
2017-03-31T05:54:48.202Z,50
2017-03-31T05:55:48.470Z,50
2017-03-31T05:56:48.138Z,50
2017-03-31T05:57:47.863Z,55
2017-03-31T05:58:48.426Z,55
2017-03-31T05:59:48.422Z,60
2017-03-31T06:00:48.401Z,60
2017-03-31T06:01:48.391Z,60
2017-03-31T06:02:48.067Z,65
2017-03-31T06:03:47.736Z,65
2017-03-31T06:04:48.040Z,65
2017-03-31T06:05:47.711Z,70
2017-03-31T06:06:48.318Z,70
2017-03-31T06:07:48.001Z,70
2017-03-31T06:08:47.984Z,75
2017-03-31T06:09:47.970Z,75
2017-03-31T06:10:48.278Z,75
2017-03-31T06:11:47.933Z,75
2017-03-31T06:12:48.235Z,80
2017-03-31T06:13:47.911Z,80
2017-03-31T06:14:48.206Z,80
2017-03-31T06:15:47.884Z,80
2017-03-31T06:16:47.876Z,85
2017-03-31T06:17:48.175Z,85
2017-03-31T06:18:47.843Z,85
2017-03-31T06:19:48.151Z,90
2017-03-31T06:20:47.828Z,90
2017-03-31T06:21:48.112Z,90
2017-03-31T06:22:47.789Z,90
2017-03-31T06:23:47.774Z,95
2017-03-31T06:24:48.080Z,95
2017-03-31T06:25:47.749Z,95
2017-03-31T06:26:47.795Z,100
2017-03-31T06:27:48.032Z,100
2017-03-31T06:28:48.025Z,100
2017-03-31T06:29:48.024Z,100
2017-03-31T06:30:47.685Z,105
2017-03-31T06:31:47.999Z,105
2017-03-31T06:32:47.991Z,110
2017-03-31T06:33:47.646Z,110
2017-03-31T06:34:47.942Z,110
2017-03-31T06:35:47.946Z,115
2017-03-31T06:36:47.918Z,115
2017-03-31T06:37:47.608Z,115
2017-03-31T06:38:47.886Z,120
2017-03-31T06:39:47.887Z,125
2017-03-31T06:40:48.074Z,120
2017-03-31T06:41:47.857Z,120
2017-03-31T06:42:47.849Z,120
2017-03-31T06:43:47.220Z,125
2017-03-31T06:44:46.883Z,125
2017-03-31T06:45:47.809Z,125
2017-03-31T06:46:46.856Z,125
2017-03-31T06:47:47.485Z,125
2017-03-31T06:48:47.773Z,130
2017-03-31T06:49:47.783Z,130
2017-03-31T06:50:47.122Z,135
2017-03-31T06:51:47.737Z,135
2017-03-31T06:52:47.723Z,135
2017-03-31T06:53:47.713Z,140
2017-03-31T06:54:47.699Z,140
2017-03-31T06:55:47.685Z,145
2017-03-31T06:56:47.679Z,145
2017-03-31T06:57:47.348Z,145
2017-03-31T06:58:47.697Z,145
2017-03-31T06:59:47.639Z,145
2017-03-31T07:00:46.999Z,145
2017-03-31T07:01:47.620Z,150
2017-03-31T07:02:47.289Z,150
2017-03-31T07:03:47.025Z,150
2017-03-31T07:04:47.273Z,150
2017-03-31T07:05:47.579Z,155
2017-03-31T07:06:46.936Z,155
2017-03-31T07:07:47.553Z,155
2017-03-31T07:08:47.221Z,155
2017-03-31T07:09:47.224Z,160
2017-03-31T07:10:47.208Z,160
2017-03-31T07:11:47.201Z,165
2017-03-31T07:12:47.184Z,165
2017-03-31T07:13:47.167Z,165
2017-03-31T07:14:47.170Z,165
2017-03-31T07:15:47.459Z,165
2017-03-31T07:16:47.467Z,165
2017-03-31T07:17:47.438Z,165
2017-03-31T07:18:47.427Z,165
2017-03-31T07:19:47.614Z,170
2017-03-31T07:20:47.098Z,170
2017-03-31T07:21:47.405Z,170
2017-03-31T07:22:47.444Z,165
2017-03-31T07:23:47.377Z,165
2017-03-31T07:24:47.052Z,170
2017-03-31T07:25:47.397Z,170
2017-03-31T07:26:47.346Z,175
2017-03-31T07:27:47.019Z,175
2017-03-31T07:28:47.347Z,180
2017-03-31T07:29:47.042Z,180
2017-03-31T07:30:47.038Z,180
2017-03-31T07:31:47.292Z,185
2017-03-31T07:32:47.277Z,190
2017-03-31T07:33:47.265Z,190
2017-03-31T07:34:47.259Z,195
2017-03-31T07:35:46.937Z,195
2017-03-31T07:36:47.236Z,200
2017-03-31T07:37:47.224Z,205
2017-03-31T07:38:46.907Z,205
2017-03-31T07:39:47.215Z,210
2017-03-31T07:40:46.882Z,205
2017-03-31T07:41:47.185Z,215
2017-03-31T07:42:47.176Z,215
2017-03-31T07:43:47.168Z,220
2017-03-31T07:44:47.155Z,220
2017-03-31T07:45:46.836Z,225
2017-03-31T07:46:46.929Z,220
2017-03-31T07:47:46.845Z,220
2017-03-31T07:48:47.147Z,220
2017-03-31T07:49:46.795Z,225
2017-03-31T07:50:46.797Z,225
2017-03-31T07:51:47.094Z,230
2017-03-31T07:52:46.759Z,235
2017-03-31T07:53:47.074Z,235
2017-03-31T07:54:46.745Z,235
2017-03-31T07:55:46.433Z,235
2017-03-31T07:56:47.054Z,235
2017-03-31T07:57:47.081Z,240
2017-03-31T07:58:46.704Z,240
2017-03-31T07:59:47.069Z,240
2017-03-31T08:00:46.998Z,245
2017-03-31T08:01:46.694Z,250
2017-03-31T08:02:46.989Z,250
2017-03-31T08:03:46.974Z,255
2017-03-31T08:04:46.671Z,255
2017-03-31T08:05:46.330Z,260
2017-03-31T08:06:46.943Z,265
2017-03-31T08:07:46.968Z,270
2017-03-31T08:08:46.619Z,275
2017-03-31T08:09:46.922Z,280
2017-03-31T08:10:46.301Z,280
2017-03-31T08:11:46.282Z,285
2017-03-31T08:12:46.583Z,295
2017-03-31T08:13:46.564Z,300
2017-03-31T08:14:46.895Z,305
2017-03-31T08:15:46.553Z,320
2017-03-31T08:16:46.551Z,385
2017-03-31T08:17:46.530Z,550
2017-03-31T08:18:46.848Z,540
2017-03-31T08:19:46.839Z,530
2017-03-31T08:20:46.825Z,480
2017-03-31T08:21:46.818Z,525
2017-03-31T08:22:46.824Z,560
2017-03-31T08:23:46.807Z,575
2017-03-31T08:24:46.479Z,570
2017-03-31T08:25:46.479Z,550
2017-03-31T08:26:46.471Z,490
2017-03-31T08:27:46.461Z,565
2017-03-31T08:28:46.765Z,535
2017-03-31T08:29:46.757Z,530
2017-03-31T08:30:46.430Z,585
2017-03-31T08:31:46.753Z,560
2017-03-31T08:32:46.729Z,560
2017-03-31T08:33:46.409Z,540
2017-03-31T08:34:46.093Z,485
2017-03-31T08:35:46.406Z,440
2017-03-31T08:36:46.401Z,465
2017-03-31T08:37:46.400Z,460
2017-03-31T08:38:46.694Z,465
2017-03-31T08:39:46.085Z,440
2017-03-31T08:40:46.567Z,490
2017-03-31T08:41:46.679Z,495
2017-03-31T08:42:46.687Z,495
2017-03-31T08:43:46.033Z,450
2017-03-31T08:44:46.714Z,455
2017-03-31T08:45:46.648Z,425
2017-03-31T08:46:46.330Z,400
2017-03-31T08:47:46.012Z,375
2017-03-31T08:48:46.008Z,380
2017-03-31T08:49:46.638Z,370
2017-03-31T08:50:46.304Z,365
2017-03-31T08:51:45.980Z,360
2017-03-31T08:52:46.313Z,345
2017-03-31T08:53:46.597Z,360
2017-03-31T08:54:46.794Z,375
2017-03-31T08:55:46.584Z,385
2017-03-31T08:56:46.576Z,385
2017-03-31T08:57:46.255Z,390
2017-03-31T08:58:45.933Z,380
2017-03-31T08:59:46.555Z,405
2017-03-31T09:00:46.548Z,415
2017-03-31T09:01:45.933Z,505
2017-03-31T09:02:46.230Z,605
2017-03-31T09:03:45.898Z,655
2017-03-31T09:04:46.211Z,730
2017-03-31T09:05:46.523Z,755
2017-03-31T09:06:46.212Z,640
2017-03-31T09:07:46.566Z,585
2017-03-31T09:08:46.539Z,585
2017-03-31T09:09:46.229Z,605
2017-03-31T09:10:46.527Z,585
2017-03-31T09:11:46.481Z,555
2017-03-31T09:12:46.470Z,590
2017-03-31T09:13:46.459Z,615
2017-03-31T09:14:46.142Z,610
2017-03-31T09:15:46.460Z,605
2017-03-31T09:16:46.500Z,590
2017-03-31T09:17:45.811Z,555
2017-03-31T09:18:46.470Z,585
2017-03-31T09:19:46.115Z,675
2017-03-31T09:20:46.312Z,715
2017-03-31T09:21:46.104Z,630
2017-03-31T09:22:46.415Z,515
2017-03-31T09:23:46.461Z,525
2017-03-31T09:24:46.098Z,515
2017-03-31T09:25:46.395Z,565
2017-03-31T09:26:46.447Z,675
2017-03-31T09:27:46.082Z,645
2017-03-31T09:28:46.374Z,655
2017-03-31T09:29:46.070Z,570
2017-03-31T09:30:46.371Z,575
2017-03-31T09:31:46.365Z,605
2017-03-31T09:32:46.359Z,680
2017-03-31T09:33:46.038Z,655
2017-03-31T09:34:46.034Z,610
2017-03-31T09:35:46.023Z,670
2017-03-31T09:36:46.334Z,610
2017-03-31T09:37:46.025Z,565
2017-03-31T09:38:46.326Z,600
2017-03-31T09:39:46.520Z,590
2017-03-31T09:40:46.021Z,590
2017-03-31T09:41:46.000Z,660
2017-03-31T09:42:46.001Z,710
2017-03-31T09:43:45.677Z,580
2017-03-31T09:44:45.399Z,560
2017-03-31T09:45:46.283Z,530
2017-03-31T09:46:46.284Z,500
2017-03-31T09:47:45.967Z,505
2017-03-31T09:48:46.271Z,510
2017-03-31T09:49:45.956Z,565
2017-03-31T09:50:46.270Z,545
2017-03-31T09:51:46.270Z,565
2017-03-31T09:52:46.254Z,515
2017-03-31T09:53:46.244Z,565
2017-03-31T09:54:45.926Z,610
2017-03-31T09:55:46.242Z,625
2017-03-31T09:56:46.237Z,695
2017-03-31T09:57:45.917Z,600
2017-03-31T09:58:45.599Z,535
2017-03-31T09:59:46.232Z,500
2017-03-31T10:00:46.217Z,495
2017-03-31T10:01:46.212Z,565
2017-03-31T10:02:46.237Z,560
2017-03-31T10:03:46.204Z,540
2017-03-31T10:04:45.895Z,600
2017-03-31T10:05:45.590Z,645
2017-03-31T10:06:45.887Z,675
2017-03-31T10:07:45.885Z,650
2017-03-31T10:08:46.186Z,550
2017-03-31T10:09:45.860Z,555
2017-03-31T10:10:46.180Z,600
2017-03-31T10:11:46.163Z,510
2017-03-31T10:12:46.177Z,485
2017-03-31T10:13:46.153Z,505
2017-03-31T10:14:46.153Z,575
2017-03-31T10:15:46.150Z,745
2017-03-31T10:16:46.143Z,725
2017-03-31T10:17:46.154Z,825
2017-03-31T10:18:46.130Z,670
2017-03-31T10:19:46.139Z,615
2017-03-31T10:20:45.814Z,640
2017-03-31T10:21:46.216Z,620
2017-03-31T10:22:46.114Z,630
2017-03-31T10:23:46.113Z,620
2017-03-31T10:24:45.796Z,605
2017-03-31T10:25:45.796Z,675
2017-03-31T10:26:46.106Z,695
2017-03-31T10:27:46.100Z,630
2017-03-31T10:28:45.772Z,595
2017-03-31T10:29:45.769Z,620
2017-03-31T10:30:46.081Z,620
2017-03-31T10:31:46.080Z,585
2017-03-31T10:32:46.071Z,850
2017-03-31T10:33:46.067Z,765
2017-03-31T10:34:45.747Z,705
2017-03-31T10:35:45.746Z,670
2017-03-31T10:36:45.742Z,590
2017-03-31T10:37:45.735Z,570
2017-03-31T10:38:46.043Z,560
2017-03-31T10:39:46.047Z,500
2017-03-31T10:40:45.800Z,455
2017-03-31T10:41:46.230Z,460
2017-03-31T10:42:46.066Z,460
2017-03-31T10:43:45.713Z,445
2017-03-31T10:44:45.710Z,445
2017-03-31T10:45:45.710Z,470
2017-03-31T10:46:45.704Z,505
2017-03-31T10:47:46.004Z,525
2017-03-31T10:48:45.686Z,625
2017-03-31T10:49:46.006Z,765
2017-03-31T10:50:45.684Z,790
2017-03-31T10:51:45.673Z,865
2017-03-31T10:52:45.664Z,750
2017-03-31T10:53:45.696Z,730
2017-03-31T10:54:45.969Z,665
2017-03-31T10:55:45.675Z,650
2017-03-31T10:56:45.703Z,505
2017-03-31T10:57:45.656Z,495
2017-03-31T10:58:45.692Z,465
2017-03-31T10:59:45.961Z,535
2017-03-31T11:00:45.634Z,485
2017-03-31T11:01:45.948Z,500
2017-03-31T11:02:45.625Z,580
2017-03-31T11:03:45.623Z,745
2017-03-31T11:04:45.619Z,760
2017-03-31T11:05:45.863Z,990
2017-03-31T11:06:45.923Z,965
2017-03-31T11:07:45.923Z,810
2017-03-31T11:08:45.912Z,715
2017-03-31T11:09:45.307Z,680
2017-03-31T11:10:45.291Z,575
2017-03-31T11:11:45.912Z,505
2017-03-31T11:12:45.905Z,485
2017-03-31T11:13:45.931Z,475
2017-03-31T11:14:45.883Z,420
2017-03-31T11:15:45.575Z,410
2017-03-31T11:16:45.885Z,470
2017-03-31T11:17:45.254Z,725
2017-03-31T11:18:45.867Z,845
2017-03-31T11:19:45.554Z,985
2017-03-31T11:20:45.868Z,1030
2017-03-31T11:21:45.857Z,970
2017-03-31T11:22:45.873Z,775
2017-03-31T11:23:45.894Z,1035
2017-03-31T11:24:45.844Z,1320
2017-03-31T11:25:45.731Z,1270
2017-03-31T11:26:45.528Z,1670
2017-03-31T11:27:45.892Z,1680
2017-03-31T11:28:45.533Z,1800
2017-03-31T11:29:45.831Z,1765
2017-03-31T11:30:45.847Z,1785
2017-03-31T11:31:45.538Z,1730
2017-03-31T11:32:45.193Z,1815
2017-03-31T11:33:45.506Z,1585
2017-03-31T11:34:45.507Z,1765
2017-03-31T11:35:45.869Z,1495
2017-03-31T11:36:45.508Z,1575
2017-03-31T11:37:45.196Z,1515
2017-03-31T11:38:45.814Z,1535
2017-03-31T11:39:45.492Z,1515
2017-03-31T11:40:45.818Z,1395
2017-03-31T11:41:45.183Z,1445
2017-03-31T11:42:45.196Z,1480
2017-03-31T11:43:45.507Z,1210
2017-03-31T11:44:45.826Z,1395
2017-03-31T11:45:45.813Z,1405
2017-03-31T11:46:45.810Z,1655
2017-03-31T11:47:45.182Z,1655
2017-03-31T11:48:45.183Z,1545
2017-03-31T11:49:45.500Z,1250
2017-03-31T11:50:45.801Z,1430
2017-03-31T11:51:45.856Z,1415
2017-03-31T11:52:45.807Z,1460
2017-03-31T11:53:45.191Z,1210
2017-03-31T11:54:45.823Z,1135
2017-03-31T11:55:45.503Z,1390
2017-03-31T11:56:45.812Z,1650
2017-03-31T11:57:45.184Z,1370
2017-03-31T11:58:45.813Z,1660
2017-03-31T11:59:45.821Z,1460
2017-03-31T12:00:45.536Z,1535
2017-03-31T12:01:45.508Z,1460
2017-03-31T12:02:45.814Z,1385
2017-03-31T12:03:45.815Z,900
2017-03-31T12:04:45.812Z,1050
2017-03-31T12:05:45.819Z,1180
2017-03-31T12:06:45.192Z,1255
2017-03-31T12:07:45.499Z,1365
2017-03-31T12:08:45.188Z,1365
2017-03-31T12:09:45.819Z,1550
2017-03-31T12:10:45.500Z,1645
2017-03-31T12:11:45.506Z,1720
2017-03-31T12:12:45.187Z,1455
2017-03-31T12:13:45.811Z,1570
2017-03-31T12:14:45.509Z,1710
2017-03-31T12:15:45.499Z,1690
2017-03-31T12:16:45.222Z,1785
2017-03-31T12:17:45.193Z,1630
2017-03-31T12:18:45.196Z,1770
2017-03-31T12:19:45.815Z,1720
2017-03-31T12:20:45.822Z,1670
2017-03-31T12:21:45.202Z,1675
2017-03-31T12:22:45.507Z,1710
2017-03-31T12:23:45.185Z,1730
2017-03-31T12:24:45.821Z,1775
2017-03-31T12:25:45.501Z,1715
2017-03-31T12:26:45.875Z,1685
2017-03-31T12:27:45.824Z,1595
2017-03-31T12:28:45.510Z,1690
2017-03-31T12:29:46.036Z,1750
2017-03-31T12:30:45.207Z,1485
2017-03-31T12:31:45.518Z,1775
2017-03-31T12:32:45.829Z,1805
2017-03-31T12:33:46.028Z,1850
2017-03-31T12:34:45.541Z,1850
2017-03-31T12:35:45.837Z,1840
2017-03-31T12:36:45.838Z,1850
2017-03-31T12:37:45.830Z,1855
2017-03-31T12:38:45.211Z,1825
2017-03-31T12:39:45.848Z,1795
2017-03-31T12:40:45.858Z,1830
2017-03-31T12:41:46.266Z,1760
2017-03-31T12:42:45.542Z,1790
2017-03-31T12:43:45.544Z,1795
2017-03-31T12:44:45.555Z,1735
2017-03-31T12:45:45.863Z,1730
2017-03-31T12:46:45.554Z,1740
2017-03-31T12:47:45.574Z,1705
2017-03-31T12:48:45.852Z,1450
2017-03-31T12:49:45.547Z,1435
2017-03-31T12:50:45.864Z,1615
2017-03-31T12:51:45.549Z,1805
2017-03-31T12:52:45.237Z,1810
2017-03-31T12:53:45.556Z,1745
2017-03-31T12:54:45.880Z,1695
2017-03-31T12:55:45.570Z,1485
2017-03-31T12:56:45.563Z,1590
2017-03-31T12:57:45.884Z,1660
2017-03-31T12:58:45.876Z,1715
2017-03-31T12:59:45.888Z,1670
2017-03-31T13:00:45.893Z,1560
2017-03-31T13:01:45.587Z,1000
2017-03-31T13:02:45.580Z,980
2017-03-31T13:03:45.572Z,1255
2017-03-31T13:04:45.899Z,1610
2017-03-31T13:05:45.899Z,1525
2017-03-31T13:06:45.586Z,1455
2017-03-31T13:07:45.898Z,1565
2017-03-31T13:08:45.589Z,1605
2017-03-31T13:09:45.328Z,1645
2017-03-31T13:10:45.619Z,1600
2017-03-31T13:11:45.593Z,1690
2017-03-31T13:12:45.586Z,1625
2017-03-31T13:13:45.906Z,1670
2017-03-31T13:14:45.917Z,1580
2017-03-31T13:15:45.915Z,1610
2017-03-31T13:16:46.111Z,1725
2017-03-31T13:17:45.929Z,1675
2017-03-31T13:18:45.919Z,1640
2017-03-31T13:19:45.919Z,1535
2017-03-31T13:20:45.973Z,1370
2017-03-31T13:21:46.198Z,1565
2017-03-31T13:22:45.645Z,1430
2017-03-31T13:23:45.929Z,1340
2017-03-31T13:24:45.958Z,1345
2017-03-31T13:25:45.925Z,810
2017-03-31T13:26:45.929Z,1120
2017-03-31T13:27:45.931Z,975
2017-03-31T13:28:45.623Z,1185
2017-03-31T13:29:45.941Z,1270
2017-03-31T13:30:45.933Z,785
2017-03-31T13:31:45.625Z,980
2017-03-31T13:32:45.952Z,945
2017-03-31T13:33:46.018Z,1010
2017-03-31T13:34:45.941Z,1025
2017-03-31T13:35:45.947Z,1110
2017-03-31T13:36:45.937Z,1110
2017-03-31T13:37:45.935Z,1210
2017-03-31T13:38:45.941Z,1190
2017-03-31T13:39:46.007Z,1165
2017-03-31T13:40:45.937Z,1220
2017-03-31T13:41:45.941Z,1320
2017-03-31T13:42:45.931Z,1335
2017-03-31T13:43:45.929Z,1320
2017-03-31T13:44:45.945Z,1160
2017-03-31T13:45:45.935Z,1080
2017-03-31T13:46:45.935Z,1245
2017-03-31T13:47:45.615Z,1230
2017-03-31T13:48:45.926Z,1315
2017-03-31T13:49:45.930Z,1160
2017-03-31T13:50:45.623Z,1260
2017-03-31T13:51:45.940Z,1230
2017-03-31T13:52:45.946Z,1205
2017-03-31T13:53:45.313Z,870
2017-03-31T13:54:45.983Z,755
2017-03-31T13:55:45.929Z,540
2017-03-31T13:56:45.930Z,630
2017-03-31T13:57:45.723Z,670
2017-03-31T13:58:45.932Z,775
2017-03-31T13:59:45.308Z,1085
2017-03-31T14:00:45.939Z,1215
2017-03-31T14:01:45.930Z,995
2017-03-31T14:02:45.926Z,845
2017-03-31T14:03:45.626Z,1050
2017-03-31T14:04:45.932Z,1065
2017-03-31T14:05:45.929Z,1030